createdAt,value
2023-03-17T00:01:09.811Z,43.11
2023-03-17T00:04:13.561Z,43.11
2023-03-17T00:07:18.281Z,43.13
2023-03-17T00:10:23.354Z,43.05
2023-03-17T00:13:26.459Z,43.24
2023-03-17T00:16:34.381Z,43.22
2023-03-17T00:19:37.191Z,43.19
2023-03-17T00:22:40.916Z,43.20
2023-03-17T00:25:45.336Z,43.15
2023-03-17T00:28:48.465Z,43.17
2023-03-17T00:31:52.677Z,43.14
2023-03-17T00:34:58.720Z,43.19
2023-03-17T00:38:01.516Z,43.09
2023-03-17T00:41:06.396Z,43.05
2023-03-17T00:44:09.736Z,43.05
2023-03-17T00:47:15.004Z,43.03
2023-03-17T00:50:22.352Z,42.98
2023-03-17T00:53:25.112Z,43.07
2023-03-17T00:56:27.969Z,43.10
2023-03-17T00:59:37.976Z,43.14
2023-03-17T01:02:42.175Z,43.11
2023-03-17T01:05:45.029Z,42.98
2023-03-17T01:08:47.913Z,42.98
2023-03-17T01:11:50.756Z,43.04
2023-03-17T01:14:53.776Z,43.04
2023-03-17T01:17:58.693Z,42.89
2023-03-17T01:21:01.518Z,42.74
2023-03-17T01:24:04.758Z,42.62
2023-03-17T01:27:07.908Z,42.70
2023-03-17T01:30:24.040Z,42.72
2023-03-17T01:33:28.238Z,42.68
2023-03-17T01:36:31.034Z,42.72
2023-03-17T01:39:34.308Z,42.75
2023-03-17T01:42:37.149Z,42.83
2023-03-17T01:46:27.395Z,42.72
2023-03-17T01:49:35.609Z,42.79
2023-03-17T01:52:39.862Z,42.69
2023-03-17T01:55:44.866Z,42.65
2023-03-17T01:58:53.005Z,42.59
2023-03-17T02:02:02.278Z,42.64
2023-03-17T02:05:09.675Z,42.52
2023-03-17T02:08:14.058Z,42.58
2023-03-17T02:11:17.002Z,42.68
2023-03-17T02:14:20.467Z,42.53
2023-03-17T02:17:26.105Z,42.55
2023-03-17T02:21:02.688Z,42.71
2023-03-17T02:24:12.220Z,42.70
2023-03-17T02:27:18.666Z,42.66
2023-03-17T02:30:24.331Z,42.56
2023-03-17T02:33:27.645Z,42.59
2023-03-17T02:36:31.143Z,42.44
2023-03-17T02:39:35.521Z,42.62
2023-03-17T02:42:39.311Z,42.49
2023-03-17T02:45:43.549Z,42.58
2023-03-17T02:48:48.455Z,42.56
2023-03-17T02:51:52.128Z,42.63
2023-03-17T02:54:56.343Z,42.46
2023-03-17T02:57:59.205Z,42.48
2023-03-17T03:01:02.275Z,42.53
2023-03-17T03:04:05.229Z,42.44
2023-03-17T03:07:08.308Z,42.53
2023-03-17T03:10:13.308Z,42.42
2023-03-17T03:13:16.336Z,42.40
2023-03-17T03:16:19.221Z,42.44
2023-03-17T03:19:22.747Z,42.34
2023-03-17T03:22:25.580Z,42.27
2023-03-17T03:25:29.733Z,42.34
2023-03-17T03:28:32.566Z,42.57
2023-03-17T03:31:35.441Z,42.56
2023-03-17T03:34:38.356Z,42.34
2023-03-17T03:37:41.641Z,42.27
2023-03-17T03:40:46.253Z,42.37
2023-03-17T03:43:49.092Z,42.29
2023-03-17T03:46:51.985Z,42.34
2023-03-17T03:49:54.876Z,42.32
2023-03-17T03:52:58.567Z,42.38
2023-03-17T03:56:02.951Z,42.36
2023-03-17T03:59:06.185Z,42.38
2023-03-17T04:02:09.754Z,42.32
2023-03-17T04:05:13.703Z,42.39
2023-03-17T04:08:16.592Z,42.52
2023-03-17T04:11:21.070Z,42.36
2023-03-17T04:14:23.913Z,42.44
2023-03-17T04:17:26.685Z,42.49
2023-03-17T04:20:29.896Z,42.35
2023-03-17T04:23:32.878Z,42.37
2023-03-17T04:26:37.137Z,42.38
2023-03-17T04:29:40.020Z,42.41
2023-03-17T04:32:43.223Z,42.27
2023-03-17T04:35:46.314Z,42.41
2023-03-17T04:38:49.125Z,42.39
2023-03-17T04:41:53.296Z,42.47
2023-03-17T04:44:56.029Z,42.47
2023-03-17T04:47:59.010Z,42.33
2023-03-17T04:51:01.928Z,42.39
2023-03-17T04:54:06.034Z,42.34
2023-03-17T04:57:10.364Z,42.29
2023-03-17T05:00:15.505Z,42.31
2023-03-17T05:03:26.625Z,42.20
2023-03-17T05:06:30.800Z,42.31
2023-03-17T05:09:33.580Z,42.37
2023-03-17T05:12:37.812Z,42.32
2023-03-17T05:15:41.303Z,42.29
2023-03-17T05:18:44.761Z,42.12
2023-03-17T05:21:47.627Z,42.27
2023-03-17T05:24:50.561Z,42.30
2023-03-17T05:27:54.666Z,42.34
2023-03-17T05:30:57.666Z,42.32
2023-03-17T05:34:00.613Z,42.39
2023-03-17T05:37:03.360Z,42.44
2023-03-17T05:40:06.720Z,42.50
2023-03-17T05:43:11.481Z,42.39
2023-03-17T05:46:14.603Z,42.55
2023-03-17T05:49:18.718Z,42.39
2023-03-17T05:52:22.100Z,42.18
2023-03-17T05:55:24.976Z,42.26
2023-03-17T05:58:29.343Z,42.09
2023-03-17T06:01:32.465Z,41.96
2023-03-17T06:04:35.228Z,41.90
2023-03-17T06:07:51.676Z,41.80
2023-03-17T06:10:58.197Z,41.68
2023-03-17T06:14:02.349Z,41.54
2023-03-17T06:17:05.245Z,41.54
2023-03-17T06:20:09.429Z,41.65
2023-03-17T06:23:12.369Z,41.61
2023-03-17T06:26:15.283Z,41.59
2023-03-17T06:29:19.819Z,41.58
2023-03-17T06:32:22.786Z,41.62
2023-03-17T06:35:25.787Z,41.52
2023-03-17T06:38:28.768Z,41.53
2023-03-17T06:41:31.653Z,41.57
2023-03-17T06:44:36.285Z,41.50
2023-03-17T06:47:39.777Z,41.54
2023-03-17T06:50:42.703Z,41.58
2023-03-17T06:53:45.724Z,41.66
2023-03-17T06:56:48.681Z,41.56
2023-03-17T06:59:52.817Z,41.69
2023-03-17T07:02:55.724Z,41.71
2023-03-17T07:05:58.750Z,41.60
2023-03-17T07:09:02.452Z,41.63
2023-03-17T07:12:06.038Z,41.71
2023-03-17T07:15:12.429Z,41.66
2023-03-17T07:18:15.531Z,41.68
2023-03-17T07:21:18.398Z,41.74
2023-03-17T07:24:21.178Z,41.71
2023-03-17T07:27:25.370Z,41.64
2023-03-17T07:30:29.669Z,41.61
2023-03-17T07:33:33.823Z,41.61
2023-03-17T07:36:36.630Z,41.18
2023-03-17T07:39:40.006Z,40.79
2023-03-17T07:42:43.502Z,40.64
2023-03-17T07:45:47.901Z,40.34
2023-03-17T07:48:51.190Z,40.38
2023-03-17T07:51:54.016Z,40.60
2023-03-17T07:54:58.179Z,40.81
2023-03-17T07:58:01.245Z,41.07
2023-03-17T08:01:05.872Z,41.13
2023-03-17T08:04:10.864Z,41.39
2023-03-17T08:07:14.638Z,41.39
2023-03-17T08:10:18.306Z,41.41
2023-03-17T08:13:21.131Z,41.57
2023-03-17T08:16:25.335Z,41.53
2023-03-17T08:19:28.143Z,41.44
2023-03-17T08:22:30.942Z,41.55
2023-03-17T08:25:33.711Z,41.59
2023-03-17T08:28:36.566Z,41.61
2023-03-17T08:31:41.014Z,41.55
2023-03-17T08:34:44.444Z,41.68
2023-03-17T08:37:48.136Z,41.53
2023-03-17T08:40:51.257Z,41.60
2023-03-17T08:43:54.377Z,41.51
2023-03-17T08:46:58.582Z,41.60
2023-03-17T08:50:01.717Z,41.54
2023-03-17T08:53:04.477Z,41.51
2023-03-17T08:56:08.430Z,41.64
2023-03-17T08:59:12.461Z,41.54
2023-03-17T09:02:16.834Z,41.46
2023-03-17T09:05:20.680Z,41.60
2023-03-17T09:08:23.982Z,41.48
2023-03-17T09:11:29.646Z,41.40
2023-03-17T09:14:42.618Z,41.50
2023-03-17T09:17:47.557Z,41.35
2023-03-17T09:20:50.553Z,41.47
2023-03-17T09:23:53.460Z,41.49
2023-03-17T09:26:59.757Z,41.51
2023-03-17T09:30:02.852Z,41.43
2023-03-17T09:33:07.085Z,41.31
2023-03-17T09:36:13.591Z,41.33
2023-03-17T09:39:16.484Z,41.47
2023-03-17T09:42:34.677Z,41.37
2023-03-17T09:45:41.712Z,41.52
2023-03-17T09:48:54.387Z,41.42
2023-03-17T09:51:57.274Z,41.49
2023-03-17T09:55:01.169Z,41.40
2023-03-17T09:58:04.961Z,41.33
2023-03-17T10:01:12.812Z,41.35
2023-03-17T10:04:19.072Z,41.43
2023-03-17T10:07:28.192Z,41.40
2023-03-17T10:10:38.365Z,41.53
2023-03-17T10:13:53.193Z,41.41
2023-03-17T10:17:01.807Z,41.46
2023-03-17T10:20:10.341Z,41.43
2023-03-17T10:23:16.498Z,41.40
2023-03-17T10:26:30.147Z,41.33
2023-03-17T10:29:33.097Z,41.41
2023-03-17T10:32:40.271Z,41.37
2023-03-17T10:35:44.995Z,41.39
2023-03-17T10:38:54.160Z,41.47
2023-03-17T10:41:59.027Z,41.30
2023-03-17T10:45:07.555Z,41.39
2023-03-17T10:48:11.063Z,41.32
2023-03-17T10:51:23.814Z,41.34
2023-03-17T10:54:26.684Z,41.43
2023-03-17T10:57:31.195Z,41.45
2023-03-17T11:00:37.249Z,41.46
2023-03-17T11:03:41.776Z,41.53
2023-03-17T11:06:47.232Z,41.65
2023-03-17T11:09:51.617Z,41.82
2023-03-17T11:12:58.743Z,41.93
2023-03-17T11:16:18.682Z,42.13
2023-03-17T11:19:28.593Z,42.39
2023-03-17T11:22:38.847Z,42.53
2023-03-17T11:25:45.021Z,42.39
2023-03-17T11:28:52.887Z,42.55
2023-03-17T11:32:01.484Z,42.72
2023-03-17T11:35:25.021Z,42.82
2023-03-17T11:38:31.408Z,42.80
2023-03-17T11:41:46.715Z,43.02
2023-03-17T11:45:11.189Z,43.56
2023-03-17T11:48:23.624Z,43.81
2023-03-17T11:51:33.226Z,44.03
2023-03-17T11:54:47.023Z,44.24
2023-03-17T11:57:56.752Z,44.69
2023-03-17T12:01:02.053Z,44.75
2023-03-17T12:04:12.198Z,45.04
2023-03-17T12:07:20.718Z,45.29
2023-03-17T12:10:28.696Z,45.34
2023-03-17T12:13:40.213Z,45.17
2023-03-17T12:16:49.360Z,45.33
2023-03-17T12:20:06.691Z,45.48
2023-03-17T12:23:17.753Z,45.32
2023-03-17T12:26:31.201Z,45.37
2023-03-17T12:29:43.663Z,45.50
2023-03-17T12:32:55.024Z,45.57
2023-03-17T12:35:59.172Z,45.56
2023-03-17T12:39:09.255Z,45.72
2023-03-17T12:42:25.284Z,45.71
2023-03-17T12:45:46.071Z,45.76
2023-03-17T12:49:04.356Z,45.67
2023-03-17T12:52:37.442Z,45.70
2023-03-17T12:55:40.484Z,45.95
2023-03-17T12:58:47.569Z,46.14
2023-03-17T13:01:58.540Z,46.40
2023-03-17T13:05:06.349Z,46.36
2023-03-17T13:08:15.870Z,46.17
2023-03-17T13:11:27.145Z,46.03
2023-03-17T13:14:42.649Z,45.99
2023-03-17T13:17:45.447Z,45.91
2023-03-17T13:21:09.127Z,46.16
2023-03-17T13:24:41.934Z,46.26
2023-03-17T13:27:48.388Z,45.95
2023-03-17T13:31:10.177Z,46.32
2023-03-17T13:34:16.232Z,46.30
2023-03-17T13:37:28.231Z,46.85
2023-03-17T13:40:40.480Z,47.22
2023-03-17T13:44:02.352Z,47.53
2023-03-17T13:47:29.516Z,47.30
2023-03-17T13:50:34.126Z,47.35
2023-03-17T13:53:41.235Z,47.25
2023-03-17T13:56:49.087Z,47.17
2023-03-17T14:00:13.765Z,47.33
2023-03-17T14:03:21.618Z,47.34
2023-03-17T14:06:31.286Z,47.28
2023-03-17T14:09:38.859Z,47.43
2023-03-17T14:12:49.208Z,47.36
2023-03-17T14:15:57.399Z,47.46
2023-03-17T14:19:12.833Z,47.35
2023-03-17T14:22:25.344Z,47.13
2023-03-17T14:25:33.482Z,46.86
2023-03-17T14:28:36.910Z,46.74
2023-03-17T14:31:39.741Z,46.84
2023-03-17T14:34:45.798Z,46.65
2023-03-17T14:37:48.561Z,46.75
2023-03-17T14:41:00.235Z,46.71
2023-03-17T14:44:03.243Z,46.79
2023-03-17T14:47:10.675Z,46.84
2023-03-17T14:50:22.026Z,46.76
2023-03-17T14:53:26.370Z,46.63
2023-03-17T14:56:36.067Z,46.65
2023-03-17T14:59:41.732Z,46.64
2023-03-17T15:02:56.161Z,46.40
2023-03-17T15:09:27.826Z,46.44
2023-03-17T15:12:32.091Z,46.45
2023-03-17T15:15:38.455Z,46.47
2023-03-17T15:18:41.353Z,46.58
2023-03-17T15:21:45.636Z,46.54
2023-03-17T15:24:59.116Z,46.55
2023-03-17T15:28:01.964Z,46.44
2023-03-17T15:31:13.760Z,46.45
2023-03-17T15:34:16.571Z,46.52
2023-03-17T15:37:22.260Z,46.41
2023-03-17T15:40:25.247Z,46.17
2023-03-17T15:43:28.041Z,46.27
2023-03-17T15:46:32.529Z,46.24
2023-03-17T15:49:35.955Z,46.24
2023-03-17T15:52:40.201Z,46.18
2023-03-17T15:55:42.940Z,46.24
2023-03-17T15:58:47.902Z,46.27
2023-03-17T16:01:50.848Z,46.16
2023-03-17T16:04:54.138Z,46.19
2023-03-17T16:07:58.691Z,46.23
2023-03-17T16:11:01.728Z,46.08
2023-03-17T16:14:04.583Z,46.12
2023-03-17T16:17:16.758Z,45.95
2023-03-17T16:20:22.372Z,45.12
2023-03-17T16:23:28.766Z,45.02
2023-03-17T16:26:31.665Z,42.13
2023-03-17T16:29:34.455Z,41.22
2023-03-17T16:32:37.264Z,40.76
2023-03-17T16:35:40.210Z,39.24
2023-03-17T16:38:45.059Z,40.72
2023-03-17T16:41:49.081Z,40.35
2023-03-17T16:44:52.055Z,39.74
2023-03-17T16:47:55.609Z,39.02
2023-03-17T16:50:59.436Z,39.30
2023-03-17T16:54:03.773Z,39.35
2023-03-17T16:57:07.965Z,39.24
2023-03-17T17:00:17.960Z,39.22
2023-03-17T17:03:20.896Z,39.41
2023-03-17T17:06:24.739Z,39.56
2023-03-17T17:09:28.932Z,39.67
2023-03-17T17:12:31.676Z,39.72
2023-03-17T17:15:36.383Z,39.80
2023-03-17T17:18:39.170Z,40.08
2023-03-17T17:21:41.976Z,40.04
2023-03-17T17:24:46.136Z,40.19
2023-03-17T17:27:49.773Z,40.46
2023-03-17T17:30:53.738Z,40.40
2023-03-17T17:33:56.521Z,40.51
2023-03-17T17:36:59.480Z,40.63
2023-03-17T17:40:03.864Z,40.83
2023-03-17T17:43:06.730Z,40.88
2023-03-17T17:46:17.784Z,41.12
2023-03-17T17:49:21.338Z,41.07
2023-03-17T17:52:24.244Z,41.18
2023-03-17T17:55:28.558Z,41.30
2023-03-17T17:58:31.473Z,41.44
2023-03-17T18:01:34.279Z,41.45
2023-03-17T18:04:37.276Z,41.60
2023-03-17T18:07:40.702Z,41.55
2023-03-17T18:10:44.913Z,41.60
2023-03-17T18:13:47.764Z,41.68
2023-03-17T18:16:51.086Z,41.73
2023-03-17T18:19:54.079Z,41.92
2023-03-17T18:22:56.922Z,41.87
2023-03-17T18:26:02.048Z,41.96
2023-03-17T18:29:04.876Z,42.02
2023-03-17T18:32:08.892Z,42.17
2023-03-17T18:35:16.883Z,42.18
2023-03-17T18:38:19.760Z,42.28
2023-03-17T18:41:24.231Z,42.26
2023-03-17T18:44:27.043Z,42.22
2023-03-17T18:47:29.826Z,42.40
2023-03-17T18:50:33.060Z,42.48
2023-03-17T18:53:36.777Z,42.44
2023-03-17T18:56:41.061Z,42.49
2023-03-17T18:59:44.084Z,42.55
2023-03-17T19:02:47.529Z,42.67
2023-03-17T19:05:51.636Z,42.55
2023-03-17T19:08:54.461Z,42.62
2023-03-17T19:11:58.662Z,42.64
2023-03-17T19:15:01.774Z,42.66
2023-03-17T19:18:04.963Z,42.71
2023-03-17T19:21:08.491Z,42.70
2023-03-17T19:24:12.413Z,42.67
2023-03-17T19:27:17.511Z,42.70
2023-03-17T19:30:20.497Z,42.67
2023-03-17T19:33:23.597Z,42.62
2023-03-17T19:36:26.489Z,42.71
2023-03-17T19:39:31.301Z,42.77
2023-03-17T19:42:35.520Z,42.80
2023-03-17T19:45:38.445Z,42.87
2023-03-17T19:48:42.018Z,42.75
2023-03-17T19:51:45.308Z,42.67
2023-03-17T19:54:48.672Z,42.72
2023-03-17T19:57:53.238Z,42.72
2023-03-17T20:00:56.339Z,42.77
2023-03-17T20:03:59.437Z,42.76
2023-03-17T20:07:02.255Z,42.86
2023-03-17T20:10:06.554Z,42.92
2023-03-17T20:13:10.826Z,42.84
2023-03-17T20:16:13.642Z,43.02
2023-03-17T20:19:16.596Z,42.87
2023-03-17T20:22:19.541Z,43.01
2023-03-17T20:25:22.594Z,42.92
2023-03-17T20:28:29.512Z,42.94
2023-03-17T20:31:33.815Z,43.03
2023-03-17T20:34:36.737Z,43.02
2023-03-17T20:37:39.955Z,43.02
2023-03-17T20:40:43.387Z,43.00
2023-03-17T20:43:48.103Z,43.04
2023-03-17T20:46:51.594Z,42.93
2023-03-17T20:49:57.839Z,43.04
2023-03-17T20:53:01.567Z,43.01
2023-03-17T20:56:04.852Z,43.14
2023-03-17T20:59:09.760Z,43.18
2023-03-17T21:02:16.875Z,43.22
2023-03-17T21:05:21.905Z,43.23
2023-03-17T21:08:24.805Z,43.22
2023-03-17T21:11:27.664Z,43.17
2023-03-17T21:14:31.835Z,43.22
2023-03-17T21:17:35.379Z,43.15
2023-03-17T21:20:38.260Z,43.21
2023-03-17T21:23:41.752Z,43.24
2023-03-17T21:26:44.618Z,43.17
2023-03-17T21:29:49.200Z,43.19
2023-03-17T21:32:53.551Z,43.28
2023-03-17T21:35:57.939Z,43.19
2023-03-17T21:39:00.980Z,43.05
2023-03-17T21:42:04.238Z,42.54
2023-03-17T21:45:09.722Z,42.74
2023-03-17T21:48:12.956Z,42.88
2023-03-17T21:51:16.187Z,43.03
2023-03-17T21:54:19.429Z,43.07
2023-03-17T21:57:22.836Z,43.21
2023-03-17T22:00:29.012Z,43.18
2023-03-17T22:03:39.909Z,43.30
2023-03-17T22:06:43.330Z,43.18
2023-03-17T22:09:46.198Z,43.21
2023-03-17T22:12:49.028Z,43.22
2023-03-17T22:15:53.544Z,43.28
2023-03-17T22:18:56.532Z,43.20
2023-03-17T22:21:59.450Z,43.36
2023-03-17T22:25:05.097Z,43.32
2023-03-17T22:28:08.631Z,43.32
2023-03-17T22:31:14.433Z,43.22
2023-03-17T22:34:17.329Z,43.22
2023-03-17T22:37:20.172Z,43.24
2023-03-17T22:40:22.956Z,43.21
2023-03-17T22:43:25.840Z,43.30
2023-03-17T22:46:30.336Z,43.04
2023-03-17T22:49:33.139Z,43.06
2023-03-17T22:52:37.226Z,43.24
2023-03-17T22:55:40.133Z,43.17
2023-03-17T22:58:43.647Z,43.18
2023-03-17T23:01:47.830Z,43.06
2023-03-17T23:04:51.100Z,43.21
2023-03-17T23:07:54.036Z,43.24
2023-03-17T23:11:01.769Z,43.25
2023-03-17T23:14:05.419Z,43.03
2023-03-17T23:17:09.728Z,43.25
2023-03-17T23:20:13.663Z,43.26
2023-03-17T23:23:17.384Z,43.28
2023-03-17T23:26:20.306Z,43.28
2023-03-17T23:29:24.389Z,43.27
2023-03-17T23:32:29.602Z,43.20
2023-03-17T23:35:33.333Z,43.31
2023-03-17T23:38:36.552Z,43.33
2023-03-17T23:41:39.483Z,43.31
2023-03-17T23:44:42.771Z,43.24
2023-03-17T23:47:48.285Z,43.16
2023-03-17T23:50:53.213Z,43.24
2023-03-17T23:53:56.064Z,43.26
2023-03-17T23:56:58.896Z,43.21
